Time;durP1;ratioP1;P1;durP2;ratioP2;P2;SDS_P1;SDS_P2;PMS_P1;PMS_P2;Temp;Humidity;BMP_temperature;BMP_pressure;BME280_temperature;BME280_humidity;BME280_pressure;Samples;Min_cycle;Max_cycle;Signal;HPM_P1;HPM_P2
2022/06/10 00:00:21;;;;;;;1.93;1.60;;;26.10;46.40;;;;;;5093691;28;20408;-84
2022/06/10 00:02:49;;;;;;;3.23;1.60;;;26.00;46.40;;;;;;5093242;28;20435;-84
2022/06/10 00:05:18;;;;;;;7.53;2.30;;;26.10;46.50;;;;;;5092239;28;20450;-84
2022/06/10 00:07:46;;;;;;;2.80;1.93;;;26.10;46.30;;;;;;5083770;28;20449;-84
2022/06/10 00:10:15;;;;;;;2.10;1.60;;;26.10;46.40;;;;;;5092741;28;20441;-84
2022/06/10 00:12:43;;;;;;;2.20;2.00;;;26.00;46.40;;;;;;5092197;28;20489;-85
2022/06/10 00:15:12;;;;;;;1.97;1.87;;;26.00;46.40;;;;;;5092174;28;20478;-85
2022/06/10 00:17:40;;;;;;;2.17;1.53;;;26.00;46.40;;;;;;5091477;28;20444;-84
2022/06/10 00:20:10;;;;;;;1.70;1.60;;;26.00;46.50;;;;;;5091553;28;20442;-83
2022/06/10 00:22:38;;;;;;;3.40;1.77;;;26.00;46.60;;;;;;5090336;28;20448;-85
2022/06/10 00:25:07;;;;;;;1.57;1.47;;;26.00;46.50;;;;;;5084463;28;20447;-84
2022/06/10 00:27:35;;;;;;;2.70;1.80;;;26.00;46.50;;;;;;5092404;28;20417;-83
2022/06/10 00:30:03;;;;;;;2.87;1.67;;;26.00;46.40;;;;;;5090933;28;20446;-84
2022/06/10 00:32:33;;;;;;;5.30;1.50;;;25.90;46.60;;;;;;5090554;28;20456;-83
2022/06/10 00:35:01;;;;;;;2.40;1.93;;;26.00;46.60;;;;;;5091225;28;20549;-84
2022/06/10 00:37:28;;;;;;;1.70;1.60;;;25.90;46.60;;;;;;5091188;28;20408;-83
2022/06/10 00:39:56;;;;;;;2.57;2.13;;;25.90;46.70;;;;;;5086063;28;20486;-84
2022/06/10 00:42:24;;;;;;;3.93;2.07;;;25.90;46.60;;;;;;5086170;28;20491;-85
2022/06/10 00:44:53;;;;;;;2.83;2.03;;;25.90;46.70;;;;;;5090986;28;20419;-83
2022/06/10 00:47:23;;;;;;;3.83;2.00;;;25.90;46.70;;;;;;5090052;28;20424;-83
2022/06/10 00:49:54;;;;;;;1.70;1.60;;;25.90;46.70;;;;;;5090663;28;20424;-84
2022/06/10 00:52:25;;;;;;;2.70;1.57;;;25.90;46.60;;;;;;5090751;28;20461;-85
2022/06/10 00:54:52;;;;;;;2.30;1.47;;;25.90;46.70;;;;;;5089701;28;20452;-84
2022/06/10 00:57:22;;;;;;;2.07;1.87;;;25.90;46.70;;;;;;5081811;28;20465;-85
2022/06/10 00:59:51;;;;;;;2.03;1.73;;;25.90;46.80;;;;;;5090781;28;20519;-84
2022/06/10 01:02:21;;;;;;;1.80;1.50;;;25.90;46.90;;;;;;5091161;28;20461;-84
2022/06/10 01:04:49;;;;;;;1.60;1.50;;;25.80;46.90;;;;;;5091276;28;20452;-85
2022/06/10 01:07:19;;;;;;;2.03;1.90;;;25.80;47.00;;;;;;5090142;28;20482;-84
2022/06/10 01:09:47;;;;;;;1.60;1.50;;;25.80;47.00;;;;;;5090661;28;20435;-85
2022/06/10 01:12:41;;;;;;;2.73;1.70;;;25.80;47.00;;;;;;5081817;28;20444;-83
2022/06/10 01:15:21;;;;;;;1.77;1.60;;;25.90;46.90;;;;;;5090613;28;20444;-84
2022/06/10 01:17:56;;;;;;;1.30;1.20;;;25.70;46.80;;;;;;5091332;28;20446;-84
2022/06/10 01:20:36;;;;;;;1.47;1.37;;;25.70;46.90;;;;;;5091213;28;20408;-82
2022/06/10 01:23:40;;;;;;;2.30;2.07;;;25.80;47.10;;;;;;5091116;28;20443;-83
2022/06/10 01:30:02;;;;;;;1.57;1.40;;;25.70;47.00;;;;;;5086727;28;20456;-83
2022/06/10 01:32:33;;;;;;;1.47;1.37;;;25.70;47.10;;;;;;5070680;28;20440;-84
2022/06/10 01:35:07;;;;;;;1.53;1.43;;;25.70;47.20;;;;;;5070649;28;20477;-83
2022/06/10 01:37:39;;;;;;;2.10;1.73;;;25.70;47.20;;;;;;5070675;28;20428;-85
2022/06/10 01:40:11;;;;;;;2.13;1.93;;;25.70;47.30;;;;;;5070278;28;20477;-85
2022/06/10 01:42:42;;;;;;;1.60;1.50;;;25.60;47.20;;;;;;5070630;28;20482;-83
2022/06/10 01:45:12;;;;;;;1.40;1.40;;;25.60;47.30;;;;;;5070596;28;20443;-84
2022/06/10 01:47:45;;;;;;;1.73;1.63;;;25.70;47.20;;;;;;5080401;28;20420;-84
2022/06/10 01:50:16;;;;;;;3.17;1.43;;;25.70;47.20;;;;;;5089834;28;20416;-84
2022/06/10 01:52:46;;;;;;;1.63;1.50;;;25.70;47.10;;;;;;5090314;28;20551;-83
2022/06/10 01:55:18;;;;;;;1.57;1.47;;;25.60;47.10;;;;;;5090682;28;20523;-83
2022/06/10 01:57:48;;;;;;;1.93;1.80;;;25.60;47.20;;;;;;5090631;28;20401;-82
2022/06/10 02:00:18;;;;;;;1.67;1.57;;;25.60;47.10;;;;;;5093193;28;20423;-85
2022/06/10 02:02:49;;;;;;;1.80;1.47;;;25.60;47.20;;;;;;5091645;28;20468;-83
2022/06/10 02:05:20;;;;;;;1.40;1.40;;;25.60;47.10;;;;;;5090928;28;20426;-84
2022/06/10 02:07:50;;;;;;;1.83;1.53;;;25.60;47.30;;;;;;5095774;28;20424;-83
2022/06/10 02:10:22;;;;;;;2.90;1.57;;;25.60;47.30;;;;;;5087262;28;20432;-84
2022/06/10 02:12:52;;;;;;;3.07;1.50;;;25.60;47.30;;;;;;5076436;28;20422;-86
2022/06/10 02:15:21;;;;;;;1.60;1.50;;;25.60;47.20;;;;;;5075597;28;20461;-83
2022/06/10 02:17:53;;;;;;;2.10;1.10;;;25.60;47.30;;;;;;5087659;28;20420;-83
2022/06/10 02:20:23;;;;;;;1.30;1.30;;;25.50;47.40;;;;;;5090999;28;20421;-85
2022/06/10 02:22:51;;;;;;;1.50;1.40;;;25.50;47.20;;;;;;5095325;28;20451;-85
2022/06/10 02:25:22;;;;;;;1.50;1.40;;;25.50;47.30;;;;;;5094457;28;20448;-84
2022/06/10 02:27:52;;;;;;;1.40;1.30;;;25.50;47.40;;;;;;5094326;28;20438;-83
2022/06/10 02:30:21;;;;;;;2.13;1.20;;;25.50;47.40;;;;;;5094036;28;20411;-83
2022/06/10 02:32:50;;;;;;;1.60;1.33;;;25.50;47.40;;;;;;5092131;28;20496;-83
2022/06/10 02:35:19;;;;;;;1.50;1.40;;;25.50;47.40;;;;;;5085051;28;20436;-82
2022/06/10 02:37:53;;;;;;;1.20;1.20;;;25.50;47.50;;;;;;5091979;28;20427;-82
2022/06/10 02:40:26;;;;;;;1.50;1.40;;;25.50;47.30;;;;;;5092614;28;20443;-83
2022/06/10 02:42:59;;;;;;;1.50;1.40;;;25.50;47.40;;;;;;5092184;28;20433;-82
2022/06/10 02:45:32;;;;;;;1.57;1.47;;;25.50;47.40;;;;;;5091757;28;20416;-83
2022/06/10 02:48:06;;;;;;;2.37;1.53;;;25.50;47.30;;;;;;5091361;28;20461;-82
2022/06/10 02:50:35;;;;;;;1.40;1.20;;;25.40;47.40;;;;;;5089613;28;20450;-83
2022/06/10 02:53:05;;;;;;;1.43;1.33;;;25.40;47.30;;;;;;5084726;28;20404;-82
2022/06/10 02:55:33;;;;;;;2.17;1.50;;;25.40;47.30;;;;;;5092055;28;20451;-83
2022/06/10 03:01:16;;;;;;;1.30;1.20;;;25.40;47.40;;;;;;5091873;28;20447;-83
2022/06/10 03:04:00;;;;;;;2.10;1.53;;;25.40;47.40;;;;;;5091142;28;20523;-83
2022/06/10 03:06:32;;;;;;;3.87;1.33;;;25.40;47.50;;;;;;5080084;28;20434;-83
2022/06/10 03:09:05;;;;;;;1.70;1.60;;;25.40;47.50;;;;;;5070469;28;20514;-83
2022/06/10 03:11:36;;;;;;;1.50;1.40;;;25.40;47.50;;;;;;5071628;28;20436;-84
2022/06/10 03:14:09;;;;;;;1.40;1.30;;;25.40;47.40;;;;;;5071512;28;20471;-83
2022/06/10 03:16:47;;;;;;;1.57;1.43;;;25.40;47.40;;;;;;5072374;28;20519;-85
2022/06/10 03:19:23;;;;;;;1.67;1.50;;;25.40;47.40;;;;;;5071099;28;20425;-84
2022/06/10 03:21:55;;;;;;;1.60;1.50;;;25.40;47.30;;;;;;5078627;28;20421;-82
2022/06/10 03:24:27;;;;;;;1.67;1.57;;;25.40;47.40;;;;;;5073637;28;20425;-83
2022/06/10 03:27:00;;;;;;;1.60;1.50;;;25.40;47.30;;;;;;5072843;28;20417;-82
2022/06/10 03:29:44;;;;;;;1.50;1.40;;;25.40;47.30;;;;;;5073500;28;20401;-82
2022/06/10 03:32:13;;;;;;;2.57;1.40;;;25.40;47.30;;;;;;5072020;28;20465;-83
2022/06/10 03:34:44;;;;;;;2.53;1.87;;;25.30;47.20;;;;;;5073060;28;20433;-83
2022/06/10 03:37:12;;;;;;;1.50;1.40;;;25.40;47.40;;;;;;5073181;28;20477;-84
2022/06/10 03:39:41;;;;;;;1.60;1.43;;;25.40;47.40;;;;;;5081948;28;20417;-83
2022/06/10 03:42:14;;;;;;;1.37;1.27;;;25.40;47.30;;;;;;5092484;28;20468;-83
2022/06/10 03:44:42;;;;;;;1.90;1.40;;;25.40;47.40;;;;;;5092486;28;20441;-83
2022/06/10 03:47:13;;;;;;;1.40;1.30;;;25.40;47.30;;;;;;5091977;28;20453;-83
2022/06/10 03:49:45;;;;;;;1.77;1.23;;;25.40;47.20;;;;;;5092033;28;20454;-83
2022/06/10 03:52:16;;;;;;;1.40;1.30;;;25.30;47.80;;;;;;5092331;28;20460;-83
2022/06/10 03:54:44;;;;;;;1.70;1.20;;;25.30;47.20;;;;;;5091671;28;20469;-83
2022/06/10 03:57:13;;;;;;;1.83;1.33;;;25.30;47.30;;;;;;5092987;28;20428;-84
2022/06/10 03:59:41;;;;;;;1.47;1.37;;;25.40;47.40;;;;;;5092588;28;20427;-83
2022/06/10 04:02:10;;;;;;;4.10;1.60;;;25.40;47.30;;;;;;5091682;28;20513;-83
2022/06/10 04:04:39;;;;;;;1.40;1.27;;;25.30;47.20;;;;;;5092020;28;20404;-83
2022/06/10 04:07:08;;;;;;;1.30;1.20;;;25.30;47.30;;;;;;5091980;28;20424;-82
2022/06/10 04:09:36;;;;;;;1.50;1.40;;;25.30;47.30;;;;;;5091703;28;20451;-84
2022/06/10 04:12:04;;;;;;;1.63;1.53;;;25.30;47.50;;;;;;5083607;28;20428;-83
2022/06/10 04:14:32;;;;;;;1.50;1.40;;;25.30;47.30;;;;;;5091456;28;20978;-86
2022/06/10 04:17:01;;;;;;;1.70;1.60;;;25.30;47.40;;;;;;5092040;28;20509;-84
2022/06/10 04:19:29;;;;;;;1.53;1.40;;;25.30;47.30;;;;;;5090682;28;20441;-83
2022/06/10 04:21:57;;;;;;;2.27;1.60;;;25.30;47.50;;;;;;5089700;28;20461;-84
2022/06/10 04:24:27;;;;;;;2.40;1.47;;;25.30;47.20;;;;;;5091276;28;20416;-83
2022/06/10 04:26:55;;;;;;;1.80;1.30;;;25.30;47.40;;;;;;5086927;28;20452;-84
2022/06/10 04:29:23;;;;;;;2.43;1.20;;;25.30;47.30;;;;;;5085745;28;20420;-84
2022/06/10 04:31:50;;;;;;;1.97;1.77;;;25.30;47.30;;;;;;5090954;28;20452;-83
2022/06/10 04:34:18;;;;;;;3.27;1.17;;;25.30;47.30;;;;;;5091291;28;20435;-83
2022/06/10 04:36:46;;;;;;;1.67;1.40;;;25.30;47.20;;;;;;5090269;28;20448;-83
2022/06/10 04:39:14;;;;;;;4.13;1.47;;;25.30;47.20;;;;;;5090969;28;20512;-83
2022/06/10 04:41:43;;;;;;;1.33;1.20;;;25.30;47.20;;;;;;5090710;28;20521;-83
2022/06/10 04:44:11;;;;;;;2.70;1.23;;;25.30;47.30;;;;;;5084623;28;20432;-83
2022/06/10 04:46:45;;;;;;;1.60;1.50;;;25.30;47.30;;;;;;5089346;28;20412;-83
2022/06/10 04:49:13;;;;;;;1.77;1.20;;;25.30;47.20;;;;;;5090374;28;20455;-85
2022/06/10 04:51:41;;;;;;;2.20;1.33;;;25.20;47.10;;;;;;5091236;28;20437;-83
2022/06/10 04:54:10;;;;;;;2.83;1.50;;;25.30;47.30;;;;;;5090867;28;20539;-83
2022/06/10 04:56:38;;;;;;;1.47;1.37;;;25.30;47.20;;;;;;5091456;28;20416;-83
2022/06/10 04:59:07;;;;;;;1.50;1.17;;;25.30;47.40;;;;;;5091270;28;20416;-83
2022/06/10 05:01:35;;;;;;;2.07;1.40;;;25.30;47.20;;;;;;5089807;28;20468;-85
2022/06/10 05:04:04;;;;;;;1.97;1.43;;;25.30;47.10;;;;;;5083473;28;20506;-84
2022/06/10 05:06:32;;;;;;;2.50;1.53;;;25.30;47.20;;;;;;5091512;28;20440;-84
2022/06/10 05:09:00;;;;;;;1.73;1.33;;;25.30;47.20;;;;;;5091241;28;20424;-84
2022/06/10 05:11:28;;;;;;;2.30;1.47;;;25.30;47.20;;;;;;5090962;28;20466;-83
2022/06/10 05:13:56;;;;;;;1.60;1.47;;;25.30;47.00;;;;;;5089985;28;20423;-83
2022/06/10 05:16:26;;;;;;;2.80;1.37;;;25.40;47.10;;;;;;5089549;28;20444;-84
2022/06/10 05:18:54;;;;;;;1.30;1.20;;;25.30;47.10;;;;;;5089252;28;20456;-83
2022/06/10 05:21:22;;;;;;;1.80;1.40;;;25.30;47.80;;;;;;5075191;28;20478;-83
2022/06/10 05:23:50;;;;;;;11.20;1.60;;;25.30;47.20;;;;;;5070018;28;20405;-83
2022/06/10 05:26:18;;;;;;;1.90;1.40;;;25.30;47.00;;;;;;5068881;28;20448;-83
2022/06/10 05:28:49;;;;;;;2.20;1.60;;;25.30;47.20;;;;;;5070522;28;20421;-82
2022/06/10 05:31:17;;;;;;;1.40;1.30;;;25.40;47.10;;;;;;5070378;28;20489;-84
2022/06/10 05:36:32;;;;;;;1.10;1.10;;;25.40;47.00;;;;;;5090535;28;20966;-84
2022/06/10 05:39:00;;;;;;;2.93;1.50;;;25.40;47.10;;;;;;5089657;28;20451;-85
2022/06/10 05:44:14;;;;;;;2.30;1.43;;;25.40;47.20;;;;;;5090291;28;20469;-83
2022/06/10 05:46:43;;;;;;;2.57;1.60;;;25.40;47.00;;;;;;5090304;28;20446;-82
2022/06/10 05:49:12;;;;;;;2.20;1.30;;;25.40;47.00;;;;;;5089508;28;20450;-85
2022/06/10 05:51:40;;;;;;;1.33;1.23;;;25.40;47.10;;;;;;5079422;28;20448;-82
2022/06/10 05:54:09;;;;;;;1.67;1.30;;;25.30;47.00;;;;;;5090049;28;20420;-83
2022/06/10 05:56:37;;;;;;;1.40;1.30;;;25.40;46.90;;;;;;5090599;28;20440;-84
2022/06/10 05:59:05;;;;;;;1.77;1.67;;;25.40;46.90;;;;;;5085690;28;20465;-85
2022/06/10 06:01:33;;;;;;;1.30;1.20;;;25.40;46.90;;;;;;5086720;28;20462;-86
2022/06/10 06:04:01;;;;;;;2.53;1.43;;;25.40;46.90;;;;;;5091104;28;20442;-84
2022/06/10 06:06:30;;;;;;;1.70;1.60;;;25.40;47.20;;;;;;5075126;28;20478;-83
2022/06/10 06:08:59;;;;;;;2.00;1.63;;;25.50;47.50;;;;;;5082872;28;20457;-86
2022/06/10 06:11:27;;;;;;;2.50;1.40;;;25.50;47.50;;;;;;5091395;28;20449;-86
2022/06/10 06:13:57;;;;;;;1.37;1.27;;;25.50;47.60;;;;;;5086177;28;20425;-83
2022/06/10 06:16:25;;;;;;;1.40;1.30;;;25.60;47.60;;;;;;5077497;28;20433;-82
2022/06/10 06:18:54;;;;;;;2.30;1.40;;;25.60;47.70;;;;;;5090426;28;20445;-86
2022/06/10 06:21:22;;;;;;;1.70;1.60;;;25.70;47.40;;;;;;5091029;28;20416;-83
2022/06/10 06:23:51;;;;;;;2.50;1.80;;;25.70;47.70;;;;;;5085584;28;20472;-84
2022/06/10 06:26:19;;;;;;;1.60;1.50;;;25.70;47.50;;;;;;5085113;28;20416;-83
2022/06/10 06:28:48;;;;;;;1.57;1.40;;;25.80;47.60;;;;;;5084451;28;20453;-84
2022/06/10 06:31:27;;;;;;;2.60;1.60;;;25.80;47.60;;;;;;5070932;28;20417;-83
2022/06/10 06:34:05;;;;;;;1.63;1.53;;;25.80;47.00;;;;;;5082949;28;20446;-84
2022/06/10 06:36:39;;;;;;;1.60;1.43;;;25.80;47.40;;;;;;5090859;28;20441;-84
2022/06/10 06:39:09;;;;;;;4.27;1.60;;;25.80;47.60;;;;;;5078468;28;20454;-86
2022/06/10 06:41:37;;;;;;;2.83;1.50;;;25.90;47.50;;;;;;5088473;28;20916;-85
2022/06/10 06:44:07;;;;;;;4.40;1.77;;;25.90;47.40;;;;;;5091092;28;20439;-81
2022/06/10 06:46:36;;;;;;;1.70;1.30;;;26.00;47.40;;;;;;5092256;28;20416;-84
2022/06/10 06:49:05;;;;;;;4.50;1.37;;;26.00;47.50;;;;;;5092618;28;20420;-85
2022/06/10 06:51:33;;;;;;;3.97;1.47;;;26.10;47.30;;;;;;5095202;28;20440;-83
2022/06/10 06:54:01;;;;;;;1.33;1.33;;;26.00;47.10;;;;;;5090036;28;20443;-85
2022/06/10 06:56:31;;;;;;;2.33;1.83;;;26.10;47.20;;;;;;5086310;28;20457;-84
2022/06/10 06:58:59;;;;;;;1.90;1.30;;;26.10;47.10;;;;;;5082277;28;20824;-83
2022/06/10 07:01:27;;;;;;;1.80;1.33;;;26.20;47.10;;;;;;5080405;28;20467;-85
2022/06/10 07:03:55;;;;;;;1.90;1.30;;;26.10;47.10;;;;;;5094173;28;20424;-85
2022/06/10 07:06:23;;;;;;;1.60;1.43;;;26.20;47.10;;;;;;5094097;28;20469;-84
2022/06/10 07:08:51;;;;;;;4.60;1.67;;;26.20;47.00;;;;;;5077922;28;20429;-83
2022/06/10 07:11:19;;;;;;;1.53;1.43;;;26.30;47.00;;;;;;5073477;28;20464;-86
2022/06/10 07:13:49;;;;;;;3.00;1.50;;;26.30;46.90;;;;;;5076343;28;20450;-83
2022/06/10 07:16:17;;;;;;;2.20;1.60;;;26.40;46.80;;;;;;5094060;28;20441;-84
2022/06/10 07:18:45;;;;;;;1.83;1.43;;;26.40;46.70;;;;;;5092752;28;20503;-84
2022/06/10 07:21:13;;;;;;;6.43;1.37;;;26.40;46.70;;;;;;5078299;28;20473;-84
2022/06/10 07:23:41;;;;;;;3.53;1.53;;;26.50;46.70;;;;;;5074359;28;20442;-84
2022/06/10 07:26:09;;;;;;;2.50;1.40;;;26.50;46.40;;;;;;5074201;28;20438;-86
2022/06/10 07:28:37;;;;;;;3.13;1.63;;;26.60;46.60;;;;;;5073804;28;20474;-84
2022/06/10 07:31:06;;;;;;;1.03;1.03;;;26.60;46.30;;;;;;5079273;28;20452;-85
2022/06/10 07:33:35;;;;;;;1.83;1.30;;;26.70;46.20;;;;;;5083644;28;20437;-83
2022/06/10 07:36:05;;;;;;;1.43;1.33;;;26.70;46.10;;;;;;5093358;28;20511;-85
2022/06/10 07:38:34;;;;;;;3.70;1.37;;;26.80;46.10;;;;;;5073357;28;20459;-84
2022/06/10 07:43:47;;;;;;;1.40;1.30;;;26.90;45.90;;;;;;5081070;28;20423;-83
2022/06/10 07:46:21;;;;;;;2.17;1.37;;;26.90;45.70;;;;;;5092475;28;20484;-85
2022/06/10 07:48:50;;;;;;;1.33;1.23;;;27.00;45.70;;;;;;5084766;28;20429;-84
2022/06/10 07:51:18;;;;;;;3.53;1.57;;;27.00;45.60;;;;;;5092959;28;20432;-83
2022/06/10 07:53:46;;;;;;;2.67;1.17;;;27.00;45.60;;;;;;5092037;28;20449;-85
2022/06/10 07:56:15;;;;;;;1.77;1.50;;;27.10;45.50;;;;;;5092131;28;20480;-84
2022/06/10 07:58:44;;;;;;;1.20;1.20;;;27.20;45.30;;;;;;5091126;28;20481;-85
2022/06/10 08:01:12;;;;;;;2.03;1.20;;;27.20;45.00;;;;;;5092260;28;20444;-84
2022/06/10 08:03:48;;;;;;;1.43;1.10;;;27.20;44.90;;;;;;5088731;28;20471;-84
2022/06/10 08:06:17;;;;;;;2.20;1.50;;;27.30;45.00;;;;;;5087124;28;20421;-85
2022/06/10 08:08:45;;;;;;;1.50;1.40;;;27.30;44.90;;;;;;5075079;28;20397;-86
2022/06/10 08:11:13;;;;;;;1.50;1.40;;;27.40;45.00;;;;;;5077808;28;20481;-84
2022/06/10 08:13:41;;;;;;;3.23;1.20;;;27.40;44.90;;;;;;5092679;28;20420;-84
2022/06/10 08:16:09;;;;;;;1.33;1.23;;;27.50;45.10;;;;;;5092351;28;20449;-85
2022/06/10 08:18:38;;;;;;;1.77;1.03;;;27.60;44.90;;;;;;5090661;28;20489;-85
2022/06/10 08:23:53;;;;;;;5.23;1.33;;;27.70;44.80;;;;;;5082543;28;20426;-85
2022/06/10 08:26:21;;;;;;;3.80;1.27;;;27.70;44.70;;;;;;5092521;28;20448;-85
2022/06/10 08:28:49;;;;;;;1.50;1.40;;;27.70;44.70;;;;;;5075741;28;20437;-84
2022/06/10 08:31:17;;;;;;;1.50;1.40;;;27.80;44.60;;;;;;5071456;28;20455;-85
2022/06/10 08:33:46;;;;;;;1.40;1.30;;;27.80;44.70;;;;;;5071831;28;20438;-86
2022/06/10 08:36:15;;;;;;;1.63;1.20;;;27.80;44.40;;;;;;5071959;28;20425;-85
2022/06/10 08:38:49;;;;;;;1.43;1.33;;;27.80;44.30;;;;;;5085633;28;20469;-85
2022/06/10 08:41:23;;;;;;;1.40;1.30;;;27.80;44.30;;;;;;5086117;28;20488;-84
2022/06/10 08:43:55;;;;;;;1.20;1.10;;;27.80;44.40;;;;;;5071947;28;20462;-85
2022/06/10 08:46:35;;;;;;;1.57;1.30;;;27.70;44.50;;;;;;5071882;28;20458;-85
2022/06/10 08:49:24;;;;;;;3.83;1.27;;;27.70;44.60;;;;;;5072676;28;20439;-87
2022/06/10 08:51:56;;;;;;;1.43;1.10;;;27.80;44.70;;;;;;5072548;28;20429;-84
2022/06/10 08:54:25;;;;;;;1.10;1.10;;;27.70;44.80;;;;;;5078446;28;20442;-86
2022/06/10 08:56:54;;;;;;;1.43;1.33;;;27.80;44.80;;;;;;5082332;28;20420;-84
2022/06/10 08:59:26;;;;;;;1.57;1.30;;;27.80;44.60;;;;;;5083531;28;20486;-84
2022/06/10 09:02:02;;;;;;;3.27;1.30;;;27.80;44.80;;;;;;5084254;28;20415;-84
2022/06/10 09:04:34;;;;;;;2.33;1.30;;;27.80;44.90;;;;;;5082748;28;20442;-85
2022/06/10 09:07:12;;;;;;;1.60;1.20;;;27.80;44.80;;;;;;5080249;28;20408;-84
2022/06/10 09:09:41;;;;;;;1.77;1.40;;;27.80;44.70;;;;;;5081447;28;20509;-84
2022/06/10 09:12:12;;;;;;;4.10;1.50;;;27.80;44.70;;;;;;5075258;28;20458;-86
2022/06/10 09:14:41;;;;;;;1.57;1.47;;;27.90;44.70;;;;;;5079970;28;20396;-83
2022/06/10 09:17:12;;;;;;;1.87;1.40;;;27.90;44.70;;;;;;5089480;28;20458;-83
2022/06/10 09:19:44;;;;;;;1.10;1.00;;;27.90;44.60;;;;;;5080209;28;20490;-84
2022/06/10 09:22:16;;;;;;;8.43;1.10;;;27.80;44.80;;;;;;5066892;28;20450;-86
2022/06/10 09:24:45;;;;;;;5.30;1.40;;;27.80;44.60;;;;;;5063017;28;20462;-86
2022/06/10 09:27:16;;;;;;;4.70;1.67;;;27.80;45.00;;;;;;5064277;28;20489;-84
2022/06/10 09:29:44;;;;;;;11.53;1.50;;;27.90;44.60;;;;;;5067134;28;20469;-82
2022/06/10 09:32:14;;;;;;;12.60;1.70;;;27.90;44.60;;;;;;5071957;28;20505;-85
2022/06/10 09:34:49;;;;;;;6.00;1.33;;;27.90;44.60;;;;;;5083408;28;20437;-88
2022/06/10 09:37:26;;;;;;;6.53;1.40;;;27.90;45.10;;;;;;5079159;28;20442;-83
2022/06/10 09:42:55;;;;;;;2.73;1.30;;;27.90;44.40;;;;;;5082359;28;20484;-82
2022/06/10 09:45:24;;;;;;;2.87;1.40;;;27.90;44.40;;;;;;5077513;28;20449;-83
2022/06/10 09:48:00;;;;;;;5.93;1.30;;;27.90;44.30;;;;;;5078420;28;20496;-85
2022/06/10 09:50:31;;;;;;;3.43;1.70;;;27.90;44.40;;;;;;5077198;28;20865;-84
2022/06/10 09:53:16;;;;;;;1.93;1.40;;;27.90;44.40;;;;;;5082724;28;20467;-85
2022/06/10 09:55:50;;;;;;;9.40;1.73;;;27.90;44.50;;;;;;5068531;28;20462;-84
2022/06/10 09:58:30;;;;;;;2.70;1.47;;;27.90;44.50;;;;;;5069084;28;20465;-85
2022/06/10 10:01:02;;;;;;;3.50;1.43;;;27.90;44.30;;;;;;5068207;28;20462;-83
2022/06/10 10:03:39;;;;;;;2.80;1.50;;;27.90;44.40;;;;;;5074326;28;20446;-82
2022/06/10 10:06:17;;;;;;;10.10;1.80;;;27.90;44.60;;;;;;5073815;28;20492;-80
2022/06/10 10:08:57;;;;;;;8.43;1.57;;;28.00;44.60;;;;;;5080749;28;20452;-83
2022/06/10 10:11:29;;;;;;;6.37;1.40;;;28.10;44.50;;;;;;5075739;28;20497;-82
2022/06/10 10:14:01;;;;;;;3.83;1.20;;;28.20;44.50;;;;;;5077198;28;20449;-85
2022/06/10 10:16:37;;;;;;;5.10;1.30;;;28.20;44.60;;;;;;5076775;28;20436;-82
2022/06/10 10:19:18;;;;;;;7.10;1.40;;;28.20;44.80;;;;;;5076732;28;20475;-83
2022/06/10 10:21:50;;;;;;;3.23;1.40;;;28.30;44.50;;;;;;5081299;28;20496;-81
2022/06/10 10:24:26;;;;;;;4.60;1.40;;;28.30;44.50;;;;;;5075805;28;20474;-82
2022/06/10 10:26:55;;;;;;;1.73;1.43;;;28.30;44.50;;;;;;5072130;28;20465;-85
2022/06/10 10:29:25;;;;;;;9.20;1.50;;;28.30;44.50;;;;;;5063204;28;20463;-81
2022/06/10 10:31:55;;;;;;;5.50;1.50;;;28.20;44.80;;;;;;5070943;28;20473;-83
2022/06/10 10:34:24;;;;;;;4.20;1.40;;;28.30;45.00;;;;;;5069526;28;20462;-82
2022/06/10 10:36:54;;;;;;;4.60;1.60;;;28.30;44.80;;;;;;5085525;28;20473;-81
2022/06/10 10:39:30;;;;;;;3.47;1.50;;;28.30;44.90;;;;;;5078622;28;20495;-82
2022/06/10 10:42:00;;;;;;;3.77;1.50;;;28.30;45.00;;;;;;5085523;28;20462;-81
2022/06/10 10:44:34;;;;;;;5.07;1.60;;;28.30;45.00;;;;;;5072471;28;20472;-83
2022/06/10 10:47:12;;;;;;;1.83;1.20;;;28.30;45.00;;;;;;5071084;28;20442;-85
2022/06/10 10:49:43;;;;;;;5.27;1.20;;;28.20;45.10;;;;;;5074768;28;20457;-82
2022/06/10 10:52:16;;;;;;;4.87;1.50;;;28.20;44.80;;;;;;5061389;28;20477;-81
2022/06/10 10:54:48;;;;;;;3.40;1.63;;;28.10;44.90;;;;;;5058301;28;20434;-81
2022/06/10 10:57:21;;;;;;;13.63;2.17;;;28.20;45.40;;;;;;5070853;28;20512;-82
2022/06/10 10:59:55;;;;;;;6.67;2.00;;;28.20;45.40;;;;;;5075700;28;20465;-81
2022/06/10 11:02:32;;;;;;;6.20;1.57;;;28.10;45.30;;;;;;5080851;28;20491;-82
2022/06/10 11:05:23;;;;;;;6.20;1.70;;;28.20;45.50;;;;;;5080907;28;20469;-84
2022/06/10 11:08:14;;;;;;;3.90;1.20;;;28.10;45.60;;;;;;5074512;28;20442;-85
2022/06/10 11:10:54;;;;;;;5.00;1.60;;;28.10;45.70;;;;;;5063428;28;20526;-83
2022/06/10 11:13:27;;;;;;;5.00;1.50;;;27.90;45.80;;;;;;5067746;28;20487;-82
2022/06/10 11:15:55;;;;;;;3.67;1.37;;;27.90;46.00;;;;;;5067674;28;20447;-84
2022/06/10 11:18:23;;;;;;;1.90;1.33;;;27.80;46.10;;;;;;5064198;28;20446;-83
2022/06/10 11:20:51;;;;;;;7.30;1.47;;;27.80;46.10;;;;;;5066571;28;20516;-83
2022/06/10 11:23:26;;;;;;;5.67;1.80;;;27.90;46.20;;;;;;5063344;28;20457;-83
2022/06/10 11:26:12;;;;;;;3.53;1.47;;;27.80;46.10;;;;;;5068165;28;20435;-83
2022/06/10 11:28:41;;;;;;;4.57;1.67;;;27.80;46.00;;;;;;5069950;28;20416;-82
2022/06/10 11:31:18;;;;;;;7.83;1.77;;;27.80;46.20;;;;;;5067591;28;20460;-82
2022/06/10 11:33:47;;;;;;;5.30;1.63;;;27.80;46.00;;;;;;5065349;28;20441;-82
2022/06/10 11:36:23;;;;;;;5.07;1.60;;;27.80;46.20;;;;;;5068387;28;20447;-82
2022/06/10 11:38:52;;;;;;;2.80;1.77;;;27.70;46.20;;;;;;5066454;28;20925;-81
2022/06/10 11:41:28;;;;;;;7.00;1.67;;;27.70;46.30;;;;;;5074813;28;20505;-82
2022/06/10 11:44:02;;;;;;;3.97;1.33;;;27.70;46.30;;;;;;5065594;28;20434;-82
2022/06/10 11:46:38;;;;;;;3.60;1.50;;;27.70;46.50;;;;;;5069121;28;20503;-83
2022/06/10 11:49:18;;;;;;;4.10;1.87;;;27.60;46.50;;;;;;5069518;28;20430;-82
2022/06/10 11:51:48;;;;;;;14.43;1.50;;;27.60;46.60;;;;;;5067802;28;20456;-82
2022/06/10 11:54:26;;;;;;;3.10;1.30;;;27.60;46.40;;;;;;5059449;28;20949;-81
2022/06/10 12:00:01;;;;;;;8.23;1.60;;;27.60;46.60;;;;;;5057157;28;20975;-84
2022/06/10 12:02:39;;;;;;;2.30;1.20;;;27.60;46.50;;;;;;5071394;28;20983;-83
2022/06/10 12:05:21;;;;;;;8.20;1.80;;;27.60;46.40;;;;;;5062635;28;20482;-83
2022/06/10 12:07:52;;;;;;;1.60;1.47;;;27.60;46.40;;;;;;5059544;28;20450;-83
2022/06/10 12:10:25;;;;;;;4.63;1.60;;;27.60;47.20;;;;;;5061636;28;20442;-82
2022/06/10 12:12:57;;;;;;;2.53;1.50;;;27.60;46.40;;;;;;5064387;28;20908;-83
2022/06/10 12:15:27;;;;;;;2.40;1.43;;;27.60;46.50;;;;;;5065514;28;20458;-84
2022/06/10 12:17:59;;;;;;;1.93;1.40;;;27.70;46.30;;;;;;5066377;28;20511;-82
2022/06/10 12:20:32;;;;;;;6.17;1.50;;;27.80;46.50;;;;;;5067584;28;20462;-82
2022/06/10 12:23:02;;;;;;;3.73;1.37;;;27.80;46.20;;;;;;5076482;28;20469;-82
2022/06/10 12:25:31;;;;;;;5.83;1.50;;;27.80;46.20;;;;;;5075205;28;20488;-82
2022/06/10 12:28:04;;;;;;;2.30;1.70;;;27.90;46.10;;;;;;5076830;28;20450;-83
2022/06/10 12:30:35;;;;;;;1.97;1.47;;;27.90;46.10;;;;;;5071961;28;20472;-83
2022/06/10 12:33:06;;;;;;;1.57;1.43;;;27.90;46.10;;;;;;5079175;28;20424;-83
2022/06/10 12:35:36;;;;;;;7.83;1.70;;;27.90;46.20;;;;;;5062683;28;20446;-82
2022/06/10 12:38:07;;;;;;;1.50;1.40;;;27.80;46.10;;;;;;5068633;28;20475;-82
2022/06/10 12:40:39;;;;;;;1.47;1.37;;;27.80;46.20;;;;;;5057089;28;20466;-82
2022/06/10 12:43:13;;;;;;;3.40;1.50;;;27.80;46.20;;;;;;5055153;28;20421;-82
2022/06/10 12:45:41;;;;;;;2.20;1.40;;;27.80;46.20;;;;;;5067576;28;20505;-83
2022/06/10 12:48:12;;;;;;;3.53;1.40;;;27.80;46.20;;;;;;5068878;28;20476;-82
2022/06/10 12:50:49;;;;;;;5.00;1.70;;;27.90;46.20;;;;;;5065584;28;20442;-83
2022/06/10 12:53:28;;;;;;;3.13;1.40;;;27.90;46.20;;;;;;5066960;28;21023;-82
2022/06/10 12:55:56;;;;;;;2.63;1.30;;;27.90;46.10;;;;;;5068188;28;20438;-83
2022/06/10 12:58:45;;;;;;;3.23;1.40;;;27.90;46.10;;;;;;5073320;28;20521;-85
2022/06/10 13:01:19;;;;;;;1.50;1.40;;;28.00;46.10;;;;;;5072091;28;20505;-83
2022/06/10 13:03:47;;;;;;;1.90;1.60;;;28.00;46.20;;;;;;5079057;28;20470;-81
2022/06/10 13:06:51;;;;;;;2.50;1.80;;;28.10;46.20;;;;;;5075150;28;20438;-83
2022/06/10 13:09:27;;;;;;;3.63;1.57;;;28.20;46.00;;;;;;5066696;28;20449;-83
2022/06/10 13:11:56;;;;;;;5.10;1.73;;;28.20;46.00;;;;;;5075759;28;20464;-82
2022/06/10 13:14:47;;;;;;;2.70;1.63;;;28.20;46.10;;;;;;5082254;28;20491;-84
2022/06/10 13:17:26;;;;;;;2.73;1.70;;;28.20;46.00;;;;;;5080872;28;20442;-82
2022/06/10 13:20:19;;;;;;;3.27;1.80;;;28.20;46.20;;;;;;5074414;28;20544;-82
2022/06/10 13:23:11;;;;;;;2.70;1.70;;;28.30;46.00;;;;;;5071671;28;20482;-82
2022/06/10 13:25:40;;;;;;;1.97;1.67;;;28.30;46.00;;;;;;5072640;28;20432;-83
2022/06/10 13:28:20;;;;;;;1.50;1.40;;;28.30;46.00;;;;;;5071544;28;20434;-84
2022/06/10 13:30:50;;;;;;;4.20;1.53;;;28.40;46.10;;;;;;5073972;28;20437;-82